createdAt,value
2023-04-19T00:00:01.077Z,9.5
2023-04-19T00:03:01.545Z,9.1
2023-04-19T00:06:01.103Z,9.1
2023-04-19T00:09:01.078Z,9.1
2023-04-19T00:12:01.084Z,9.1
2023-04-19T00:15:01.095Z,9.1
2023-04-19T00:18:01.168Z,9.1
2023-04-19T00:21:01.066Z,9.1
2023-04-19T00:24:01.051Z,8.6
2023-04-19T00:27:01.097Z,8.6
2023-04-19T00:30:01.193Z,8.6
2023-04-19T00:33:01.148Z,8.6
2023-04-19T00:36:01.059Z,8.6
2023-04-19T00:39:01.061Z,8.6
2023-04-19T00:42:01.001Z,8.6
2023-04-19T00:45:00.973Z,8.6
2023-04-19T00:48:01.114Z,8.1
2023-04-19T00:51:01.001Z,8.1
2023-04-19T00:54:01.021Z,8.1
2023-04-19T00:57:01.013Z,8.1
2023-04-19T01:00:01.127Z,8.1
2023-04-19T01:03:01.272Z,8.1
2023-04-19T01:06:01.282Z,8.1
2023-04-19T01:09:01.038Z,7.6
2023-04-19T01:12:01.100Z,7.6
2023-04-19T01:15:01.054Z,7.6
2023-04-19T01:18:01.183Z,7.6
2023-04-19T01:21:01.098Z,7.6
2023-04-19T01:24:01.090Z,7.6
2023-04-19T01:27:01.085Z,7.1
2023-04-19T01:30:01.041Z,7.1
2023-04-19T01:33:01.081Z,7.1
2023-04-19T01:36:01.123Z,7.1
2023-04-19T01:39:01.073Z,7.1
2023-04-19T01:42:01.151Z,7.1
2023-04-19T01:45:01.058Z,7.1
2023-04-19T01:48:01.220Z,7.1
2023-04-19T01:51:01.034Z,7.1
2023-04-19T01:54:01.103Z,7.1
2023-04-19T01:57:01.094Z,7.1
2023-04-19T02:00:01.144Z,6.6
2023-04-19T02:03:01.280Z,6.6
2023-04-19T02:06:01.120Z,6.6
2023-04-19T02:09:01.129Z,6.6
2023-04-19T02:12:01.114Z,6.6
2023-04-19T02:15:01.242Z,6.6
2023-04-19T02:18:01.225Z,6.6
2023-04-19T02:21:01.205Z,6.6
2023-04-19T02:24:01.097Z,6.6
2023-04-19T02:27:01.011Z,6.6
2023-04-19T02:30:01.301Z,6.1
2023-04-19T02:33:01.101Z,6.1
2023-04-19T02:36:01.149Z,6.1
2023-04-19T02:39:01.088Z,6.1
2023-04-19T02:42:01.044Z,6.1
2023-04-19T02:45:01.129Z,6.1
2023-04-19T02:48:01.227Z,6.1
2023-04-19T02:51:01.035Z,6.1
2023-04-19T02:54:01.093Z,6.1
2023-04-19T02:57:01.213Z,6.1
2023-04-19T03:00:01.095Z,6.1
2023-04-19T03:03:01.525Z,5.7
2023-04-19T03:06:01.218Z,5.7
2023-04-19T03:09:01.065Z,5.7
2023-04-19T03:12:01.057Z,5.7
2023-04-19T03:15:01.014Z,5.7
2023-04-19T03:18:01.083Z,5.7
2023-04-19T03:21:01.063Z,5.7
2023-04-19T03:24:01.161Z,5.7
2023-04-19T03:27:01.023Z,5.7
2023-04-19T03:30:01.162Z,5.4
2023-04-19T03:33:01.087Z,5.4
2023-04-19T03:36:01.074Z,5.4
2023-04-19T03:39:01.035Z,5.4
2023-04-19T03:42:01.117Z,5.4
2023-04-19T03:45:00.973Z,5.4
2023-04-19T03:48:03.320Z,5.4
2023-04-19T03:51:00.963Z,5.4
2023-04-19T03:54:01.113Z,5.4
2023-04-19T03:57:00.962Z,5.4
2023-04-19T04:00:01.144Z,5.4
2023-04-19T04:03:01.294Z,5.4
2023-04-19T04:06:01.114Z,5.4
2023-04-19T04:09:01.139Z,5.4
2023-04-19T04:12:01.115Z,5.4
2023-04-19T04:15:01.085Z,5.4
2023-04-19T04:18:01.164Z,5.4
2023-04-19T04:21:01.031Z,5.4
2023-04-19T04:24:01.502Z,5.4
2023-04-19T04:27:01.200Z,5.4
2023-04-19T04:30:01.244Z,5
2023-04-19T04:33:01.248Z,5
2023-04-19T04:36:01.161Z,5
2023-04-19T04:39:01.059Z,5
2023-04-19T04:42:01.150Z,5
2023-04-19T04:45:01.642Z,5
2023-04-19T04:48:01.309Z,5
2023-04-19T04:51:01.000Z,5
2023-04-19T04:54:01.211Z,5
2023-04-19T04:57:01.187Z,5
2023-04-19T05:00:01.628Z,5
2023-04-19T05:03:01.283Z,5
2023-04-19T05:06:01.142Z,5
2023-04-19T05:09:01.170Z,5
2023-04-19T05:12:01.230Z,5
2023-04-19T05:15:01.117Z,5
2023-04-19T05:18:01.285Z,5
2023-04-19T05:21:01.127Z,4.8
2023-04-19T05:24:01.236Z,4.8
2023-04-19T05:27:01.209Z,4.8
2023-04-19T05:30:01.540Z,4.8
2023-04-19T05:33:01.238Z,4.8
2023-04-19T05:36:01.138Z,4.8
2023-04-19T05:39:01.205Z,4.8
2023-04-19T05:42:01.174Z,4.8
2023-04-19T05:45:02.462Z,4.8
2023-04-19T05:48:01.180Z,4.8
2023-04-19T05:51:01.080Z,4.8
2023-04-19T05:54:01.188Z,4.8
2023-04-19T05:57:01.172Z,4.8
2023-04-19T06:00:01.302Z,4.8
2023-04-19T06:03:01.495Z,4.8
2023-04-19T06:06:01.345Z,4.8
2023-04-19T06:09:01.186Z,5.3
2023-04-19T06:12:01.110Z,5.3
2023-04-19T06:15:01.328Z,5.3
2023-04-19T06:18:01.320Z,5.3
2023-04-19T06:21:01.099Z,5.3
2023-04-19T06:24:01.357Z,5.3
2023-04-19T06:27:01.089Z,5.3
2023-04-19T06:30:01.370Z,5.3
2023-04-19T06:33:01.261Z,5.8
2023-04-19T06:36:01.158Z,5.8
2023-04-19T06:39:01.079Z,5.8
2023-04-19T06:42:01.163Z,5.8
2023-04-19T06:45:01.703Z,5.8
2023-04-19T06:48:01.318Z,6.4
2023-04-19T06:51:01.179Z,6.4
2023-04-19T06:54:01.198Z,6.4
2023-04-19T06:57:01.133Z,6.4
2023-04-19T07:00:02.134Z,6.4
2023-04-19T07:03:01.384Z,6.4
2023-04-19T07:06:01.278Z,6.9
2023-04-19T07:09:01.188Z,6.9
2023-04-19T07:12:01.126Z,6.9
2023-04-19T07:15:01.059Z,6.9
2023-04-19T07:18:01.223Z,6.9
2023-04-19T07:21:01.141Z,6.9
2023-04-19T07:24:01.257Z,7.4
2023-04-19T07:27:01.129Z,7.4
2023-04-19T07:30:01.389Z,7.4
2023-04-19T07:33:01.176Z,7.4
2023-04-19T07:36:01.613Z,7.4
2023-04-19T07:39:01.126Z,7.4
2023-04-19T07:42:01.294Z,7.4
2023-04-19T07:45:01.117Z,7.7
2023-04-19T07:48:01.274Z,7.7
2023-04-19T07:51:01.091Z,7.7
2023-04-19T07:54:01.151Z,7.7
2023-04-19T07:57:01.154Z,7.7
2023-04-19T08:00:02.261Z,8.2
2023-04-19T08:03:05.132Z,8.2
2023-04-19T08:06:02.102Z,8.2
2023-04-19T08:09:03.284Z,8.2
2023-04-19T08:12:04.469Z,8.2
2023-04-19T08:15:20.298Z,8.2
2023-04-19T08:18:01.822Z,8.7
2023-04-19T08:21:01.865Z,8.7
2023-04-19T08:27:01.465Z,8.7
2023-04-19T08:30:01.200Z,8.7
2023-04-19T08:33:01.384Z,9.2
2023-04-19T08:36:01.115Z,9.2
2023-04-19T08:39:10.343Z,9.2
2023-04-19T08:48:02.701Z,9.2
2023-04-19T08:51:05.928Z,9.2
2023-04-19T08:54:01.111Z,9.7
2023-04-19T08:57:01.316Z,9.7
2023-04-19T09:00:01.221Z,9.7
2023-04-19T09:03:01.623Z,9.7
2023-04-19T09:06:01.421Z,9.7
2023-04-19T09:09:01.146Z,10
2023-04-19T09:12:01.228Z,10
2023-04-19T09:15:02.820Z,10
2023-04-19T09:18:01.168Z,10
2023-04-19T09:21:01.126Z,10
2023-04-19T09:24:03.762Z,10
2023-04-19T09:27:01.204Z,10
2023-04-19T09:30:01.330Z,10.4
2023-04-19T09:33:01.525Z,10.4
2023-04-19T09:36:01.254Z,10.4
2023-04-19T09:39:01.162Z,10.4
2023-04-19T09:42:01.234Z,10.4
2023-04-19T09:45:30.338Z,10.4
2023-04-19T09:48:01.251Z,10.4
2023-04-19T09:51:09.017Z,10.7
2023-04-19T09:54:01.182Z,10.7
2023-04-19T09:57:01.928Z,10.7
2023-04-19T10:00:01.349Z,10.7
2023-04-19T10:03:01.235Z,10.7
2023-04-19T10:06:14.600Z,10.7
2023-04-19T10:09:01.327Z,10.7
2023-04-19T10:12:21.148Z,10.7
2023-04-19T10:15:01.112Z,10.7
2023-04-19T10:18:01.185Z,10.7
2023-04-19T10:21:01.123Z,10.9
2023-04-19T10:24:01.124Z,10.9
2023-04-19T10:27:01.124Z,10.9
2023-04-19T10:30:01.496Z,10.9
2023-04-19T10:33:01.312Z,11.1
2023-04-19T10:36:01.080Z,11.1
2023-04-19T10:39:01.234Z,11.1
2023-04-19T10:42:01.245Z,11.1
2023-04-19T10:45:01.133Z,11.3
2023-04-19T10:48:01.291Z,11.4
2023-04-19T10:51:01.155Z,11.4
2023-04-19T10:54:01.120Z,11.4
2023-04-19T10:57:01.131Z,11.4
2023-04-19T11:00:01.251Z,11.4
2023-04-19T11:03:01.558Z,11.8
2023-04-19T11:06:01.035Z,11.8
2023-04-19T11:09:01.070Z,11.8
2023-04-19T11:12:01.124Z,11.8
2023-04-19T11:15:01.120Z,11.8
2023-04-19T11:18:13.074Z,11.8
2023-04-19T11:21:01.039Z,11.8
2023-04-19T11:24:01.090Z,11.8
2023-04-19T11:27:01.052Z,11.9
2023-04-19T11:30:01.184Z,11.9
2023-04-19T11:33:01.265Z,11.9
2023-04-19T11:36:01.180Z,11.9
2023-04-19T11:39:01.073Z,11.9
2023-04-19T11:42:01.133Z,11.9
2023-04-19T11:45:01.064Z,11.9
2023-04-19T11:48:01.211Z,12
2023-04-19T11:51:01.112Z,12
2023-04-19T11:54:01.242Z,12
2023-04-19T11:57:01.143Z,12
2023-04-19T12:00:01.363Z,12
2023-04-19T12:03:02.424Z,12.2
2023-04-19T12:06:01.314Z,12.1
2023-04-19T12:09:01.517Z,12.1
2023-04-19T12:12:01.158Z,12.2
2023-04-19T12:15:01.297Z,12.2
2023-04-19T12:18:01.178Z,12.2
2023-04-19T12:21:01.769Z,12.2
2023-04-19T12:24:01.191Z,12.2
2023-04-19T12:27:02.064Z,12.2
2023-04-19T12:30:01.283Z,12.2
2023-04-19T12:33:01.242Z,12.2
2023-04-19T12:36:02.158Z,12.2
2023-04-19T12:39:01.087Z,12.2
2023-04-19T12:42:01.271Z,12.4
2023-04-19T12:45:01.167Z,12.4
2023-04-19T12:48:01.309Z,12.4
2023-04-19T12:51:01.063Z,12.4
2023-04-19T12:54:01.236Z,12.4
2023-04-19T12:57:03.523Z,12.4
2023-04-19T13:00:01.425Z,12.4
2023-04-19T13:03:01.416Z,12.6
2023-04-19T13:06:01.175Z,12.6
2023-04-19T13:09:01.824Z,12.6
2023-04-19T13:12:01.114Z,12.6
2023-04-19T13:15:04.637Z,12.6
2023-04-19T13:18:01.221Z,12.6
2023-04-19T13:21:01.202Z,12.6
2023-04-19T13:24:01.212Z,12.6
2023-04-19T13:27:01.104Z,12.6
2023-04-19T13:30:01.325Z,12.6
2023-04-19T13:33:01.201Z,12.5
2023-04-19T13:36:01.248Z,12.5
2023-04-19T13:39:01.198Z,12.5
2023-04-19T13:42:01.056Z,12.5
2023-04-19T13:45:01.103Z,12.5
2023-04-19T13:48:01.136Z,12.5
2023-04-19T13:51:01.189Z,12.5
2023-04-19T13:54:01.125Z,12.7
2023-04-19T13:57:01.178Z,12.7
2023-04-19T14:00:01.140Z,12.7
2023-04-19T14:03:01.409Z,12.7
2023-04-19T14:06:01.290Z,12.7
2023-04-19T14:09:01.094Z,12.7
2023-04-19T14:12:01.184Z,12.7
2023-04-19T14:15:01.144Z,12.7
2023-04-19T14:18:01.359Z,12.7
2023-04-19T14:21:01.226Z,12.5
2023-04-19T14:24:01.128Z,12.5
2023-04-19T14:27:11.342Z,12.5
2023-04-19T14:30:01.207Z,12.5
2023-04-19T14:33:01.163Z,12.5
2023-04-19T14:36:01.186Z,12.4
2023-04-19T14:39:01.123Z,12.5
2023-04-19T14:42:01.178Z,12.5
2023-04-19T14:45:01.088Z,12.6
2023-04-19T14:48:01.328Z,12.6
2023-04-19T14:51:01.302Z,12.6
2023-04-19T14:54:01.080Z,12.6
2023-04-19T14:57:01.098Z,12.6
2023-04-19T15:00:01.627Z,12.6
2023-04-19T15:03:01.289Z,12.5
2023-04-19T15:06:01.126Z,12.6
2023-04-19T15:09:01.180Z,12.6
2023-04-19T15:12:01.130Z,12.6
2023-04-19T15:15:01.056Z,12.6
2023-04-19T15:18:01.232Z,12.6
2023-04-19T15:21:01.122Z,12.6
2023-04-19T15:24:01.229Z,12.5
2023-04-19T15:27:01.057Z,12.5
2023-04-19T15:30:01.082Z,12.5
2023-04-19T15:33:01.163Z,12.4
2023-04-19T15:36:01.188Z,12.4
2023-04-19T15:39:01.106Z,12.4
2023-04-19T15:42:01.141Z,12.4
2023-04-19T15:45:01.111Z,12.4
2023-04-19T15:48:01.280Z,12.1
2023-04-19T15:51:01.201Z,12.1
2023-04-19T15:54:01.050Z,12.1
2023-04-19T15:57:01.112Z,12.1
2023-04-19T16:00:01.261Z,12.1
2023-04-19T16:03:01.457Z,12.1
2023-04-19T16:06:01.236Z,12.1
2023-04-19T16:09:01.051Z,12.1
2023-04-19T16:12:01.134Z,12.1
2023-04-19T16:15:01.077Z,12.1
2023-04-19T16:18:01.274Z,12.1
2023-04-19T16:21:01.134Z,12.3
2023-04-19T16:24:01.174Z,12.2
2023-04-19T16:27:01.081Z,12.2
2023-04-19T16:30:01.168Z,12.2
2023-04-19T16:33:01.216Z,12.2
2023-04-19T16:36:01.188Z,12.2
2023-04-19T16:39:01.409Z,12.2
2023-04-19T16:42:01.193Z,12.1
2023-04-19T16:45:01.124Z,12.1
2023-04-19T16:48:01.192Z,12
2023-04-19T16:51:01.142Z,12
2023-04-19T16:54:01.169Z,12
2023-04-19T16:57:01.088Z,12
2023-04-19T17:00:01.152Z,11.9
2023-04-19T17:03:01.385Z,11.9
2023-04-19T17:06:01.110Z,11.9
2023-04-19T17:09:01.139Z,11.9
2023-04-19T17:12:01.619Z,11.7
2023-04-19T17:15:01.059Z,11.6
2023-04-19T17:18:01.060Z,11.6
2023-04-19T17:21:01.023Z,11.6
2023-04-19T17:24:01.144Z,11.6
2023-04-19T17:27:01.155Z,11.6
2023-04-19T17:30:01.244Z,11.6
2023-04-19T17:33:01.220Z,11.6
2023-04-19T17:36:01.207Z,11.6
2023-04-19T17:39:01.116Z,11.6
2023-04-19T17:42:01.129Z,11.6
2023-04-19T17:45:01.168Z,11.6
2023-04-19T17:48:01.155Z,11.6
2023-04-19T17:51:01.245Z,11.6
2023-04-19T17:54:01.136Z,11.1
2023-04-19T17:57:01.089Z,11.1
2023-04-19T18:00:01.114Z,11.1
2023-04-19T18:03:01.322Z,11.1
2023-04-19T18:06:01.243Z,11.1
2023-04-19T18:09:01.113Z,11.1
2023-04-19T18:12:01.129Z,11.1
2023-04-19T18:15:01.077Z,11.1
2023-04-19T18:18:01.219Z,11.1
2023-04-19T18:21:01.187Z,11.1
2023-04-19T18:24:01.084Z,10.6
2023-04-19T18:27:01.097Z,10.6
2023-04-19T18:30:01.133Z,10.6
2023-04-19T18:33:01.088Z,10.6
2023-04-19T18:36:01.214Z,10.6
2023-04-19T18:39:01.008Z,10.4
2023-04-19T18:42:01.091Z,10.4
2023-04-19T18:45:01.011Z,10.2
2023-04-19T18:48:01.205Z,10.1
2023-04-19T18:51:01.066Z,10.1
2023-04-19T18:54:01.090Z,10.1
2023-04-19T18:57:23.333Z,9.8
2023-04-19T19:00:01.145Z,9.7
2023-04-19T19:03:03.966Z,9.7
2023-04-19T19:06:01.735Z,9.7
2023-04-19T19:09:01.150Z,9.7
2023-04-19T19:12:01.102Z,9.7
2023-04-19T19:15:01.034Z,9.3
2023-04-19T19:18:01.188Z,9.3
2023-04-19T19:21:01.342Z,8.9
2023-04-19T19:24:01.048Z,8.9
2023-04-19T19:27:03.107Z,8.9
2023-04-19T19:30:01.149Z,8.9
2023-04-19T19:33:01.361Z,8.4
2023-04-19T19:36:01.079Z,8.4
2023-04-19T19:39:01.056Z,8.4
2023-04-19T19:42:06.518Z,8.4
2023-04-19T19:45:01.052Z,7.8
2023-04-19T19:48:01.579Z,7.8
2023-04-19T19:54:01.081Z,7.3
2023-04-19T20:00:44.434Z,7.3
2023-04-19T20:03:01.466Z,7.3
2023-04-19T20:06:18.804Z,7.3
2023-04-19T20:09:01.687Z,7.3
2023-04-19T20:12:01.039Z,7.3
2023-04-19T20:15:01.088Z,7.3
2023-04-19T20:18:01.225Z,7.3
2023-04-19T20:21:01.017Z,6.8
2023-04-19T20:24:01.164Z,6.8
2023-04-19T20:27:01.057Z,6.8
2023-04-19T20:30:01.092Z,6.8
2023-04-19T20:33:01.102Z,6.7
2023-04-19T20:36:01.083Z,6.7
2023-04-19T20:39:01.010Z,6.7
2023-04-19T20:42:01.568Z,6.7
2023-04-19T20:45:01.534Z,6.7
2023-04-19T20:48:01.182Z,6.7
2023-04-19T20:51:01.038Z,6.7
2023-04-19T20:54:01.019Z,6.5
2023-04-19T20:57:01.029Z,6.5
2023-04-19T21:00:01.083Z,6.5
2023-04-19T21:03:01.315Z,6.5
2023-04-19T21:06:01.115Z,6.4
2023-04-19T21:09:00.976Z,6.4
2023-04-19T21:12:01.056Z,6.5
2023-04-19T21:15:01.066Z,6.5
2023-04-19T21:18:01.215Z,6.5
2023-04-19T21:21:01.103Z,6.5
2023-04-19T21:24:01.084Z,6.5
2023-04-19T21:27:01.049Z,6.4
2023-04-19T21:30:01.128Z,6.4
2023-04-19T21:33:01.090Z,6.4
2023-04-19T21:36:01.056Z,6.4
2023-04-19T21:39:01.001Z,6.4
2023-04-19T21:42:01.110Z,6.4
2023-04-19T21:45:01.142Z,6.4
2023-04-19T21:48:01.141Z,6.4
2023-04-19T21:51:01.082Z,6.4
2023-04-19T21:54:01.085Z,6.4
2023-04-19T21:57:01.112Z,6.5
2023-04-19T22:00:01.498Z,6.5
2023-04-19T22:03:01.360Z,6.5
2023-04-19T22:06:01.055Z,6.5
2023-04-19T22:09:01.124Z,6.5
2023-04-19T22:12:01.151Z,6.5
2023-04-19T22:15:01.058Z,6.5
2023-04-19T22:18:01.129Z,6.5
2023-04-19T22:21:01.063Z,6.5
2023-04-19T22:24:01.006Z,6.5
2023-04-19T22:27:01.117Z,6.5
2023-04-19T22:30:01.017Z,6.5
2023-04-19T22:33:01.250Z,6.5
2023-04-19T22:36:01.048Z,6.5
2023-04-19T22:39:01.201Z,6.5
2023-04-19T22:42:01.022Z,6.5
2023-04-19T22:45:01.125Z,6.5
2023-04-19T22:48:01.129Z,6.5
2023-04-19T22:51:01.115Z,6.5
2023-04-19T22:54:01.059Z,6.5
2023-04-19T22:57:01.064Z,6.5
2023-04-19T23:00:01.087Z,6.5
2023-04-19T23:03:01.307Z,6.5
2023-04-19T23:06:03.874Z,6.2
2023-04-19T23:09:01.139Z,6.2
2023-04-19T23:12:01.132Z,6.2
2023-04-19T23:15:01.023Z,6.2
2023-04-19T23:18:01.033Z,6.2
2023-04-19T23:21:01.063Z,6.2
2023-04-19T23:24:01.177Z,6.2
2023-04-19T23:27:01.020Z,6.2
2023-04-19T23:30:01.132Z,6.2
2023-04-19T23:33:01.180Z,6.2
2023-04-19T23:36:01.086Z,6.2
2023-04-19T23:39:01.132Z,6.2
2023-04-19T23:42:01.062Z,5.8
2023-04-19T23:45:01.062Z,5.8
2023-04-19T23:48:01.253Z,5.8
2023-04-19T23:51:01.033Z,5.8
2023-04-19T23:54:01.091Z,5.8
2023-04-19T23:57:01.061Z,5.8
